createdAt,value
2022-10-11T00:01:04.850Z,5.97
2022-10-11T00:03:33.240Z,4.95
2022-10-11T00:06:04.194Z,5.15
2022-10-11T00:08:33.851Z,4.40
2022-10-11T00:11:05.056Z,3.60
2022-10-11T00:13:34.173Z,4.35
2022-10-11T00:16:02.826Z,4.10
2022-10-11T00:18:34.280Z,5.95
2022-10-11T00:21:07.908Z,4.72
2022-10-11T00:23:36.805Z,5.95
2022-10-11T00:26:08.277Z,3.80
2022-10-11T00:28:38.682Z,4.28
2022-10-11T00:31:16.764Z,5.00
2022-10-11T00:33:45.189Z,5.70
2022-10-11T00:36:18.493Z,4.03
2022-10-11T00:38:47.435Z,4.97
2022-10-11T00:41:17.163Z,3.60
2022-10-11T00:43:46.151Z,4.53
2022-10-11T00:46:20.511Z,4.90
2022-10-11T00:51:35.727Z,2.92
2022-10-11T00:54:05.950Z,3.67
2022-10-11T00:56:41.203Z,3.28
2022-10-11T00:59:20.236Z,3.58
2022-10-11T01:01:48.757Z,5.70
2022-10-11T01:04:17.040Z,3.92
2022-10-11T01:06:46.484Z,3.17
2022-10-11T01:09:15.745Z,4.78
2022-10-11T01:11:45.949Z,3.83
2022-10-11T01:14:40.251Z,4.43
2022-10-11T01:17:17.332Z,5.57
2022-10-11T01:20:17.061Z,6.25
2022-10-11T01:23:09.691Z,7.80
2022-10-11T01:26:00.961Z,5.97
2022-10-11T01:29:04.560Z,5.22
2022-10-11T01:31:44.725Z,6.95
2022-10-11T01:34:22.640Z,5.80
2022-10-11T01:37:14.476Z,6.05
2022-10-11T01:39:49.891Z,6.18
2022-10-11T01:42:19.953Z,7.60
2022-10-11T01:44:51.096Z,5.18
2022-10-11T01:47:24.587Z,5.13
2022-10-11T01:50:01.840Z,6.70
2022-10-11T01:52:35.110Z,4.50
2022-10-11T01:55:21.686Z,4.40
2022-10-11T01:58:12.401Z,5.43
2022-10-11T02:00:59.085Z,3.22
2022-10-11T02:03:52.216Z,4.72
2022-10-11T02:07:01.835Z,3.85
2022-10-11T02:09:48.241Z,3.50
2022-10-11T02:12:42.150Z,2.85
2022-10-11T02:15:14.009Z,6.32
2022-10-11T02:17:50.454Z,4.22
2022-10-11T02:20:23.102Z,5.93
2022-10-11T02:22:57.325Z,3.40
2022-10-11T02:25:30.956Z,3.88
2022-10-11T02:28:03.055Z,5.30
2022-10-11T02:30:33.261Z,4.05
2022-10-11T02:33:06.511Z,2.67
2022-10-11T02:35:42.965Z,4.78
2022-10-11T02:38:28.049Z,3.22
2022-10-11T02:41:07.231Z,3.22
2022-10-11T02:43:42.595Z,3.22
2022-10-11T02:46:12.507Z,2.75
2022-10-11T02:48:41.041Z,3.80
2022-10-11T02:51:14.857Z,4.50
2022-10-11T02:53:43.275Z,3.15
2022-10-11T02:56:11.909Z,2.80
2022-10-11T02:58:40.233Z,6.18
2022-10-11T03:01:08.615Z,3.92
2022-10-11T03:03:37.035Z,3.47
2022-10-11T03:06:06.043Z,4.50
2022-10-11T03:08:34.798Z,4.30
2022-10-11T03:11:03.119Z,3.05
2022-10-11T03:13:31.510Z,3.63
2022-10-11T03:16:03.796Z,5.97
2022-10-11T03:18:32.784Z,3.35
2022-10-11T03:21:01.168Z,4.65
2022-10-11T03:23:29.524Z,3.60
2022-10-11T03:25:57.842Z,3.60
2022-10-11T03:28:26.177Z,4.20
2022-10-11T03:30:57.350Z,4.28
2022-10-11T03:33:25.680Z,3.88
2022-10-11T03:35:54.129Z,4.22
2022-10-11T03:38:23.606Z,5.93
2022-10-11T03:40:51.979Z,4.32
2022-10-11T03:43:20.265Z,3.70
2022-10-11T03:45:48.565Z,4.53
2022-10-11T03:48:16.921Z,4.32
2022-10-11T03:50:45.200Z,5.65
2022-10-11T03:53:13.660Z,4.78
2022-10-11T03:55:43.046Z,4.57
2022-10-11T03:58:11.595Z,10.10
2022-10-11T04:00:41.244Z,4.45
2022-10-11T04:03:09.486Z,5.63
2022-10-11T04:05:38.205Z,4.07
2022-10-11T04:08:11.184Z,5.18
2022-10-11T04:10:41.169Z,5.10
2022-10-11T04:13:12.106Z,5.25
2022-10-11T04:15:42.088Z,5.10
2022-10-11T04:18:11.154Z,5.07
2022-10-11T04:20:40.075Z,3.78
2022-10-11T04:23:08.400Z,5.40
2022-10-11T04:25:38.940Z,5.78
2022-10-11T04:28:09.057Z,5.15
2022-10-11T04:30:37.616Z,5.90
2022-10-11T04:33:06.398Z,6.00
2022-10-11T04:35:35.096Z,5.40
2022-10-11T04:38:04.170Z,5.53
2022-10-11T04:40:32.671Z,6.55
2022-10-11T04:43:01.329Z,6.10
2022-10-11T04:45:29.658Z,5.20
2022-10-11T04:47:57.922Z,8.40
2022-10-11T04:50:26.273Z,7.47
2022-10-11T04:52:54.631Z,6.45
2022-10-11T04:55:23.046Z,5.18
2022-10-11T04:57:51.437Z,6.40
2022-10-11T05:00:19.860Z,6.47
2022-10-11T05:02:48.079Z,6.60
2022-10-11T05:05:18.479Z,8.07
2022-10-11T05:07:46.810Z,5.70
2022-10-11T05:10:15.558Z,7.22
2022-10-11T05:12:43.871Z,6.57
2022-10-11T05:15:12.215Z,8.70
2022-10-11T05:17:40.555Z,7.30
2022-10-11T05:20:09.445Z,6.63
2022-10-11T05:22:37.790Z,7.63
2022-10-11T05:25:06.594Z,10.05
2022-10-11T05:27:34.823Z,6.40
2022-10-11T05:30:03.270Z,7.20
2022-10-11T05:32:31.726Z,8.57
2022-10-11T05:35:00.021Z,5.88
2022-10-11T05:37:28.310Z,5.05
2022-10-11T05:39:56.710Z,5.45
2022-10-11T05:42:25.032Z,7.32
2022-10-11T05:44:53.281Z,9.88
2022-10-11T05:47:21.511Z,6.82
2022-10-11T05:49:49.796Z,6.07
2022-10-11T05:52:22.480Z,7.97
2022-10-11T05:54:51.772Z,8.68
2022-10-11T05:57:20.080Z,7.28
2022-10-11T05:59:48.300Z,8.70
2022-10-11T06:02:16.556Z,8.13
2022-10-11T06:04:44.779Z,6.60
2022-10-11T06:07:13.495Z,7.95
2022-10-11T06:09:41.735Z,8.68
2022-10-11T06:12:12.447Z,9.60
2022-10-11T06:14:40.718Z,6.63
2022-10-11T06:17:09.257Z,8.70
2022-10-11T06:19:37.962Z,7.28
2022-10-11T06:22:06.244Z,8.70
2022-10-11T06:24:34.481Z,7.18
2022-10-11T06:27:02.750Z,9.20
2022-10-11T06:29:31.110Z,9.75
2022-10-11T06:31:59.509Z,7.47
2022-10-11T06:34:28.050Z,7.57
2022-10-11T06:36:56.319Z,8.18
2022-10-11T06:39:24.691Z,6.43
2022-10-11T06:41:53.169Z,6.78
2022-10-11T06:44:21.485Z,8.27
2022-10-11T06:46:49.855Z,9.80
2022-10-11T06:49:23.075Z,8.13
2022-10-11T06:51:52.547Z,7.50
2022-10-11T06:54:21.048Z,7.30
2022-10-11T06:56:49.524Z,8.30
2022-10-11T06:59:17.990Z,7.60
2022-10-11T07:01:46.325Z,10.23
2022-10-11T07:04:14.648Z,8.95
2022-10-11T07:06:43.702Z,9.27
2022-10-11T07:09:12.079Z,9.50
2022-10-11T07:11:40.465Z,7.78
2022-10-11T07:14:09.115Z,7.53
2022-10-11T07:16:38.134Z,6.72
2022-10-11T07:19:07.957Z,8.15
2022-10-11T07:21:36.789Z,6.95
2022-10-11T07:24:05.456Z,9.25
2022-10-11T07:26:38.520Z,9.10
2022-10-11T07:29:09.802Z,9.52
2022-10-11T07:31:40.882Z,8.05
2022-10-11T07:34:09.517Z,9.02
2022-10-11T07:36:38.333Z,9.25
2022-10-11T07:39:07.920Z,7.95
2022-10-11T07:41:39.735Z,8.52
2022-10-11T07:44:11.862Z,10.38
2022-10-11T07:46:40.217Z,10.55
2022-10-11T07:49:08.560Z,8.25
2022-10-11T07:51:37.178Z,7.80
2022-10-11T07:54:07.440Z,8.80
2022-10-11T07:56:36.231Z,10.48
2022-10-11T07:59:05.041Z,8.38
2022-10-11T08:01:34.452Z,7.93
2022-10-11T08:04:02.910Z,9.27
2022-10-11T08:06:33.520Z,9.45
2022-10-11T08:09:02.799Z,12.35
2022-10-11T08:11:36.830Z,10.95
2022-10-11T08:14:09.837Z,9.82
2022-10-11T08:16:42.000Z,7.90
2022-10-11T08:19:12.353Z,11.35
2022-10-11T08:21:40.721Z,6.53
2022-10-11T08:24:09.674Z,8.95
2022-10-11T08:26:38.001Z,9.15
2022-10-11T08:29:07.121Z,10.25
2022-10-11T08:31:36.247Z,10.35
2022-10-11T08:34:04.880Z,9.05
2022-10-11T08:36:33.837Z,10.40
2022-10-11T08:39:02.962Z,9.02
2022-10-11T08:42:08.385Z,11.95
2022-10-11T08:45:10.705Z,11.23
2022-10-11T08:47:46.479Z,10.48
2022-10-11T08:50:23.520Z,12.52
2022-10-11T08:53:09.039Z,9.65
2022-10-11T08:55:51.924Z,9.50
2022-10-11T08:58:53.151Z,9.52
2022-10-11T09:01:27.288Z,11.20
2022-10-11T09:03:56.849Z,8.60
2022-10-11T09:06:48.563Z,11.00
2022-10-11T09:09:44.097Z,11.30
2022-10-11T09:12:33.477Z,11.77
2022-10-11T09:15:39.748Z,10.70
2022-10-11T09:18:32.165Z,10.85
2022-10-11T09:21:21.990Z,11.48
2022-10-11T09:24:22.610Z,10.15
2022-10-11T09:26:50.800Z,13.48
2022-10-11T09:29:37.290Z,16.05
2022-10-11T09:32:17.010Z,15.18
2022-10-11T09:34:45.517Z,16.38
2022-10-11T09:37:55.087Z,13.32
2022-10-11T09:40:45.688Z,11.82
2022-10-11T09:43:14.648Z,11.52
2022-10-11T09:45:49.555Z,14.35
2022-10-11T09:48:27.599Z,13.40
2022-10-11T09:51:11.331Z,14.18
2022-10-11T09:54:03.715Z,13.27
2022-10-11T09:56:34.804Z,11.90
2022-10-11T09:59:21.355Z,13.23
2022-10-11T10:01:51.980Z,14.35
2022-10-11T10:04:20.879Z,14.63
2022-10-11T10:06:49.206Z,14.13
2022-10-11T10:09:31.119Z,14.07
2022-10-11T10:11:59.757Z,17.40
2022-10-11T10:14:32.158Z,15.30
2022-10-11T10:17:06.834Z,15.80
2022-10-11T10:19:55.454Z,15.38
2022-10-11T10:22:31.279Z,16.35
2022-10-11T10:25:03.165Z,18.67
2022-10-11T10:27:33.360Z,17.98
2022-10-11T10:30:04.030Z,16.65
2022-10-11T10:33:01.674Z,15.57
2022-10-11T10:35:31.821Z,17.27
2022-10-11T10:38:08.395Z,17.88
2022-10-11T10:40:51.284Z,20.48
2022-10-11T10:43:25.987Z,18.67
2022-10-11T10:46:19.750Z,14.82
2022-10-11T10:52:20.992Z,17.27
2022-10-11T10:55:24.362Z,18.60
2022-10-11T10:58:18.811Z,20.23
2022-10-11T11:00:50.110Z,24.48
2022-10-11T11:03:28.451Z,19.70
2022-10-11T11:06:09.010Z,21.67
2022-10-11T11:09:08.080Z,20.20
2022-10-11T11:11:54.165Z,23.38
2022-10-11T11:14:47.760Z,19.25
2022-10-11T11:17:44.239Z,22.38
2022-10-11T11:20:21.048Z,23.35
2022-10-11T11:23:24.397Z,18.05
2022-10-11T11:26:20.559Z,22.52
2022-10-11T11:29:01.359Z,21.10
2022-10-11T11:31:48.239Z,22.60
2022-10-11T11:34:22.961Z,23.63
2022-10-11T11:37:03.443Z,22.75
2022-10-11T11:39:34.000Z,18.48
2022-10-11T11:42:21.999Z,24.92
2022-10-11T11:44:53.370Z,23.33
2022-10-11T11:47:47.711Z,21.23
2022-10-11T11:50:24.199Z,22.93
2022-10-11T11:53:08.880Z,20.13
2022-10-11T11:55:56.988Z,23.42
2022-10-11T11:58:44.400Z,21.25
2022-10-11T12:01:59.141Z,24.60
2022-10-11T12:04:33.199Z,25.02
2022-10-11T12:07:26.369Z,22.73
2022-10-11T12:10:16.078Z,24.05
2022-10-11T12:12:44.566Z,17.17
2022-10-11T12:15:26.162Z,24.98
2022-10-11T12:17:57.193Z,22.10
2022-10-11T12:20:33.679Z,24.25
2022-10-11T12:23:20.240Z,20.40
2022-10-11T12:26:26.760Z,22.02
2022-10-11T12:29:20.741Z,26.77
2022-10-11T12:31:52.115Z,19.92
2022-10-11T12:34:42.641Z,20.10
2022-10-11T12:37:23.440Z,20.98
2022-10-11T12:39:59.767Z,22.77
2022-10-11T12:42:38.314Z,18.95
2022-10-11T12:45:15.602Z,20.90
2022-10-11T12:47:52.560Z,25.15
2022-10-11T12:50:41.443Z,26.38
2022-10-11T12:53:24.299Z,20.25
2022-10-11T12:56:08.943Z,21.65
2022-10-11T12:58:42.486Z,19.35
2022-10-11T13:01:20.656Z,22.58
2022-10-11T13:04:13.837Z,22.23
2022-10-11T13:06:55.816Z,25.63
2022-10-11T13:09:27.124Z,18.75
2022-10-11T13:12:02.629Z,22.65
2022-10-11T13:14:36.333Z,25.45
2022-10-11T13:17:05.014Z,22.13
2022-10-11T13:19:36.215Z,23.70
2022-10-11T13:22:16.400Z,24.95
2022-10-11T13:24:51.919Z,27.10
2022-10-11T13:27:24.243Z,30.13
2022-10-11T13:29:58.031Z,29.33
2022-10-11T13:32:28.885Z,29.48
2022-10-11T13:35:01.845Z,31.92
2022-10-11T13:37:32.276Z,33.38
2022-10-11T13:40:00.663Z,27.80
2022-10-11T13:42:33.796Z,34.00
2022-10-11T13:45:02.802Z,25.02
2022-10-11T13:47:33.153Z,29.67
2022-10-11T13:50:16.556Z,24.98
2022-10-11T13:53:10.776Z,30.70
2022-10-11T13:55:58.411Z,29.17
2022-10-11T13:58:33.490Z,32.90
2022-10-11T14:01:18.346Z,31.23
2022-10-11T14:06:19.438Z,29.80
2022-10-11T14:08:52.720Z,31.77
2022-10-11T14:11:38.482Z,32.90
2022-10-11T14:14:31.279Z,27.27
2022-10-11T14:17:21.030Z,32.05
2022-10-11T14:20:11.615Z,31.75
2022-10-11T14:22:40.403Z,29.02
2022-10-11T14:25:08.848Z,22.55
2022-10-11T14:27:38.646Z,35.15
2022-10-11T14:30:31.847Z,25.83
2022-10-11T14:33:02.590Z,31.42
2022-10-11T14:35:33.488Z,31.70
2022-10-11T14:38:02.001Z,29.45
2022-10-11T14:40:32.569Z,28.02
2022-10-11T14:43:00.935Z,30.17
2022-10-11T14:45:29.204Z,27.45
2022-10-11T14:47:57.641Z,30.67
2022-10-11T14:50:43.568Z,28.10
2022-10-11T14:53:13.532Z,32.42
2022-10-11T14:55:42.681Z,27.17
2022-10-11T14:58:14.967Z,29.33
2022-10-11T15:00:44.530Z,32.67
2022-10-11T15:03:13.204Z,29.52
2022-10-11T15:05:41.678Z,31.23
2022-10-11T15:08:10.150Z,29.40
2022-10-11T15:10:41.528Z,30.50
2022-10-11T15:13:13.040Z,27.00
2022-10-11T15:15:42.521Z,25.70
2022-10-11T15:18:17.655Z,33.30
2022-10-11T15:20:47.607Z,30.17
2022-10-11T15:23:16.108Z,28.23
2022-10-11T15:25:44.511Z,27.73
2022-10-11T15:28:38.539Z,31.27
2022-10-11T15:31:06.975Z,31.02
2022-10-11T15:33:35.283Z,23.95
2022-10-11T15:36:03.921Z,29.67
2022-10-11T15:38:32.715Z,25.85
2022-10-11T15:41:01.675Z,27.90
2022-10-11T15:43:29.961Z,28.52
2022-10-11T15:45:59.296Z,31.38
2022-10-11T15:48:28.398Z,27.27
2022-10-11T15:50:57.570Z,30.13
2022-10-11T15:53:32.080Z,31.65
2022-10-11T15:58:36.545Z,30.63
2022-10-11T16:01:10.676Z,26.25
2022-10-11T16:03:39.160Z,30.02
2022-10-11T16:06:08.491Z,30.13
2022-10-11T16:08:37.947Z,29.95
2022-10-11T16:11:08.005Z,32.80
2022-10-11T16:13:36.874Z,34.83
2022-10-11T16:16:10.246Z,30.42
2022-10-11T16:18:39.308Z,32.00
2022-10-11T16:21:16.385Z,28.83
2022-10-11T16:23:44.671Z,32.38
2022-10-11T16:26:15.065Z,30.58
2022-10-11T16:28:43.736Z,31.65
2022-10-11T16:31:17.641Z,31.60
2022-10-11T16:33:49.089Z,30.65
2022-10-11T16:36:41.414Z,28.85
2022-10-11T16:39:15.707Z,28.75
2022-10-11T16:41:45.097Z,32.15
2022-10-11T16:44:18.475Z,31.35
2022-10-11T16:46:50.797Z,34.53
2022-10-11T16:49:23.389Z,34.05
2022-10-11T16:51:56.507Z,33.35
2022-10-11T16:54:24.851Z,32.22
2022-10-11T16:56:56.235Z,28.33
2022-10-11T16:59:27.336Z,26.40
2022-10-11T17:01:56.190Z,28.35
2022-10-11T17:04:24.935Z,30.80
2022-10-11T17:06:55.279Z,28.67
2022-10-11T17:09:23.712Z,28.40
2022-10-11T17:11:56.650Z,26.60
2022-10-11T17:14:24.880Z,29.98
2022-10-11T17:16:56.236Z,29.42
2022-10-11T17:19:24.560Z,29.02
2022-10-11T17:21:53.040Z,30.23
2022-10-11T17:24:21.360Z,28.33
2022-10-11T17:26:49.831Z,33.88
2022-10-11T17:29:18.290Z,27.45
2022-10-11T17:31:49.173Z,26.92
2022-10-11T17:34:18.320Z,31.17
2022-10-11T17:36:46.555Z,31.95
2022-10-11T17:39:18.314Z,29.73
2022-10-11T17:41:47.445Z,27.45
2022-10-11T17:44:18.747Z,29.67
2022-10-11T17:46:50.100Z,24.80
2022-10-11T17:49:18.769Z,25.67
2022-10-11T17:51:47.037Z,27.63
2022-10-11T17:54:15.371Z,25.15
2022-10-11T17:56:43.789Z,27.88
2022-10-11T17:59:17.992Z,32.40
2022-10-11T18:01:46.322Z,27.98
2022-10-11T18:04:17.331Z,29.05
2022-10-11T18:06:47.483Z,27.90
2022-10-11T18:09:18.358Z,25.52
2022-10-11T18:11:47.784Z,27.67
2022-10-11T18:14:16.560Z,32.05
2022-10-11T18:16:46.670Z,27.83
2022-10-11T18:19:15.280Z,26.30
2022-10-11T18:21:43.650Z,28.50
2022-10-11T18:24:16.849Z,24.52
2022-10-11T18:26:46.451Z,26.88
2022-10-11T18:29:15.054Z,24.88
2022-10-11T18:31:43.371Z,26.27
2022-10-11T18:34:13.902Z,25.85
2022-10-11T18:36:44.715Z,29.33
2022-10-11T18:39:15.596Z,24.75
2022-10-11T18:41:45.301Z,30.52
2022-10-11T18:44:15.898Z,20.63
2022-10-11T18:46:45.140Z,20.77
2022-10-11T18:49:14.442Z,24.85
2022-10-11T18:51:43.444Z,25.60
2022-10-11T18:54:16.706Z,23.90
2022-10-11T18:56:48.445Z,21.35
2022-10-11T18:59:16.841Z,24.27
2022-10-11T19:01:46.085Z,20.35
2022-10-11T19:04:18.750Z,17.27
2022-10-11T19:06:49.960Z,24.80
2022-10-11T19:09:23.599Z,22.48
2022-10-11T19:11:54.162Z,21.42
2022-10-11T19:14:26.686Z,21.75
2022-10-11T19:16:55.965Z,24.20
2022-10-11T19:19:27.485Z,19.77
2022-10-11T19:21:58.214Z,19.70
2022-10-11T19:24:29.676Z,20.60
2022-10-11T19:27:02.604Z,18.85
2022-10-11T19:29:32.688Z,22.23
2022-10-11T19:32:04.529Z,19.92
2022-10-11T19:34:33.685Z,19.25
2022-10-11T19:37:02.165Z,18.00
2022-10-11T19:39:30.645Z,19.90
2022-10-11T19:41:58.965Z,20.13
2022-10-11T19:44:27.284Z,18.50
2022-10-11T19:46:55.598Z,18.40
2022-10-11T19:49:25.950Z,19.58
2022-10-11T19:51:56.238Z,19.08
2022-10-11T19:54:24.679Z,16.88
2022-10-11T19:56:53.440Z,19.25
2022-10-11T19:59:22.008Z,16.35
2022-10-11T20:01:53.132Z,22.17
2022-10-11T20:07:11.547Z,17.15
2022-10-11T20:09:39.920Z,19.20
2022-10-11T20:12:08.534Z,18.33
2022-10-11T20:14:37.004Z,18.58
2022-10-11T20:17:05.365Z,18.10
2022-10-11T20:19:33.800Z,17.45
2022-10-11T20:22:02.994Z,19.77
2022-10-11T20:24:34.078Z,21.58
2022-10-11T20:27:05.060Z,19.23
2022-10-11T20:29:33.316Z,15.90
2022-10-11T20:32:01.735Z,17.63
2022-10-11T20:34:30.160Z,17.52
2022-10-11T20:36:58.747Z,16.38
2022-10-11T20:39:27.149Z,17.55
2022-10-11T20:41:55.782Z,18.05
2022-10-11T20:44:24.105Z,15.68
2022-10-11T20:46:52.390Z,15.30
2022-10-11T20:49:20.837Z,14.23
2022-10-11T20:51:49.615Z,16.88
2022-10-11T20:54:18.325Z,13.32
2022-10-11T20:56:46.566Z,16.38
2022-10-11T20:59:14.910Z,15.50
2022-10-11T21:01:43.438Z,16.35
2022-10-11T21:04:18.985Z,15.90
2022-10-11T21:06:48.887Z,13.30
2022-10-11T21:09:17.666Z,14.40
2022-10-11T21:11:46.014Z,13.70
2022-10-11T21:14:14.540Z,15.05
2022-10-11T21:16:42.943Z,13.70
2022-10-11T21:19:15.105Z,13.40
2022-10-11T21:21:44.616Z,14.73
2022-10-11T21:24:14.725Z,11.98
2022-10-11T21:26:43.005Z,13.38
2022-10-11T21:29:11.410Z,16.63
2022-10-11T21:31:41.686Z,11.85
2022-10-11T21:34:10.085Z,9.35
2022-10-11T21:36:38.414Z,9.60
2022-10-11T21:39:06.725Z,10.38
2022-10-11T21:41:35.110Z,11.10
2022-10-11T21:44:03.555Z,12.77
2022-10-11T21:47:01.148Z,11.68
2022-10-11T21:49:21.694Z,11.25
2022-10-11T21:51:50.609Z,13.80
2022-10-11T21:54:19.430Z,11.27
2022-10-11T21:56:48.399Z,12.57
2022-10-11T21:59:16.875Z,11.15
2022-10-11T22:01:45.699Z,10.73
2022-10-11T22:04:14.484Z,13.05
2022-10-11T22:06:42.807Z,9.73
2022-10-11T22:09:11.269Z,9.73
2022-10-11T22:11:40.079Z,10.00
2022-10-11T22:14:08.510Z,12.68
2022-10-11T22:16:36.918Z,11.63
2022-10-11T22:19:05.355Z,11.00
2022-10-11T22:21:33.795Z,11.23
2022-10-11T22:24:02.160Z,12.50
2022-10-11T22:26:32.393Z,9.75
2022-10-11T22:29:01.364Z,12.52
2022-10-11T22:31:30.807Z,11.68
2022-10-11T22:34:01.233Z,9.75
2022-10-11T22:36:31.440Z,11.18
2022-10-11T22:38:59.905Z,11.32
2022-10-11T22:41:28.550Z,13.52
2022-10-11T22:43:56.891Z,11.52
2022-10-11T22:46:25.199Z,9.50
2022-10-11T22:48:53.529Z,9.50
2022-10-11T22:51:24.405Z,11.82
2022-10-11T22:53:52.728Z,10.43
2022-10-11T22:56:21.048Z,12.05
2022-10-11T22:58:49.365Z,9.48
2022-10-11T23:01:17.845Z,12.52
2022-10-11T23:03:50.195Z,10.93
2022-10-11T23:06:18.986Z,9.60
2022-10-11T23:08:47.279Z,11.13
2022-10-11T23:11:15.597Z,12.05
2022-10-11T23:13:43.871Z,12.13
2022-10-11T23:16:13.819Z,11.25
2022-10-11T23:18:43.119Z,12.50
2022-10-11T23:21:12.139Z,11.90
2022-10-11T23:23:40.672Z,11.15
2022-10-11T23:26:13.179Z,12.77
2022-10-11T23:28:43.172Z,11.80
2022-10-11T23:31:14.070Z,11.73
2022-10-11T23:33:42.432Z,13.00
2022-10-11T23:36:22.955Z,9.15
2022-10-11T23:38:56.397Z,8.65
2022-10-11T23:41:27.909Z,11.33
2022-10-11T23:43:56.399Z,13.18
2022-10-11T23:46:24.991Z,11.68
2022-10-11T23:48:53.253Z,17.27
2022-10-11T23:51:21.645Z,11.20
2022-10-11T23:53:50.030Z,10.10
2022-10-11T23:56:18.343Z,9.25
2022-10-11T23:58:46.919Z,10.63
